Terminal Aerodrome Forecast
Issued by NWS

Home | Current Version | Previous Version | Graphics & Text | Print | Product List | Glossary On
Versions: 1 2 3 4 5 6 7 8 9 10 11 12 13
000
FTUS43 KGRB 191000 AAA
TAFMTW
TAF AMD
KMTW 191037Z 1911/2006 18004KT 5SM BR SCT090
     FM191200 19003KT P6SM BKN090
     FM191600 18009G17KT P6SM SCT050 SCT090
      TEMPO 1917/1921 BKN050
     FM200100 18004KT P6SM SCT090 BKN250=

USA.gov is the U.S. government's official web portal to all federal, state and local government web resources and services.